Aldelta — 3FTO8 — position and weather

sailwx.info

Track history (hours):
 
Tides and Currents Weather Stations Pressure Air Temp Water Temp Dewpoint Dewpoint Depression Visibility Wind Speed Wind Dir Waves Ship Positions

Aldelta

Last reported at 2017-Oct-05 04:35 UTC. Time now 2017-Oct-18 18:37 UTC.
Position N 25°37' W 017°19'.
Warning: this ship's position is 13 days out of date.

Length 121 m; draft 5.9 m.

Type: Other ship. MMSI: 356547000.

Date/timePositionNaut miles runAvg speedWind from/ knotsBaromVisibWave heightAir tempDewpointWater temp
2017-Oct-05 04:35N 25°37' W 017°19'  
2017-Oct-01 23:42N 27°29' W 014°38'2 8.1
2017-Oct-01 23:30N 27°30' W 014°37'57 7.9
2017-Oct-01 16:21N 28°03' W 013°45'3 8.8
2017-Oct-01 16:00N 28°06' W 013°43'14 9.0
2017-Oct-01 14:23N 28°19' W 013°36'11 8.4
2017-Oct-01 13:01N 28°29' W 013°30'0 8.2
2017-Oct-01 12:59N 28°29' W 013°30'6 8.1
2017-Oct-01 12:17N 28°35' W 013°27'2 8.0
2017-Oct-01 11:58N 28°37' W 013°26'4 8.0
2017-Oct-01 11:30N 28°40' W 013°24'4 8.1
2017-Oct-01 11:00N 28°44' W 013°22'4 8.0
2017-Oct-01 10:30N 28°48' W 013°20'4 7.9
2017-Oct-01 10:00N 28°51' W 013°18'4 7.7
2017-Oct-01 09:30N 28°55' W 013°16'4 7.6
2017-Oct-01 09:00N 28°58' W 013°15'4 7.7
2017-Oct-01 08:29N 29°02' W 013°13'4 7.6
2017-Oct-01 08:00N 29°05' W 013°12'4 7.5
2017-Oct-01 07:29N 29°09' W 013°10'  
2017-Sep-28 07:27N 35°59' W 005°30'510.8
2017-Sep-28 07:01N 36°00' W 005°25'510.4
2017-Sep-28 06:30N 36°02' W 005°18'3 6.9
2017-Sep-28 06:01N 35°59' W 005°16'4 8.2
2017-Sep-28 05:30N 35°55' W 005°19'0 0.6
2017-Sep-28 04:59N 35°55' W 005°20'0 0.0
2017-Sep-28 04:29N 35°55' W 005°20'0 0.0
2017-Sep-28 03:58N 35°55' W 005°20'0 0.0
2017-Sep-28 03:28N 35°55' W 005°20'0 0.0
2017-Sep-28 02:59N 35°55' W 005°20'0 0.0
2017-Sep-28 02:29N 35°55' W 005°20'0 0.0
2017-Sep-28 01:59N 35°55' W 005°20'0 0.0
2017-Sep-28 01:29N 35°55' W 005°20'0 0.1
2017-Sep-28 00:59N 35°55' W 005°20'0 0.0
2017-Sep-28 00:29N 35°55' W 005°20'0 0.0
2017-Sep-27 23:59N 35°55' W 005°20'0 0.0
2017-Sep-27 23:29N 35°55' W 005°20'0 0.0
2017-Sep-27 22:59N 35°55' W 005°20'0 0.0
2017-Sep-27 22:29N 35°55' W 005°20'0 0.0
2017-Sep-27 21:59N 35°55' W 005°20'0 0.0
2017-Sep-27 21:29N 35°55' W 005°20'0 0.0
2017-Sep-27 20:56N 35°55' W 005°20'0 0.0
2017-Sep-27 20:29N 35°55' W 005°20'0 0.0
2017-Sep-27 19:58N 35°55' W 005°20'0 0.0
2017-Sep-27 19:29N 35°55' W 005°20'0 0.0
2017-Sep-27 18:59N 35°55' W 005°20'0 0.0
2017-Sep-27 18:29N 35°55' W 005°20'0 0.0
2017-Sep-27 17:59N 35°55' W 005°20'0 0.4
2017-Sep-27 17:31N 35°55' W 005°20'1 1.3
2017-Sep-27 17:01N 35°55' W 005°21'3 5.5
2017-Sep-27 16:31N 35°55' W 005°17'4 8.8
2017-Sep-27 16:01N 35°56' W 005°12'  
Track history (hours):
 
Tides and Currents Weather Stations Pressure Air Temp Water Temp Dewpoint Dewpoint Depression Visibility Wind Speed Wind Dir Waves Ship Positions

Aldelta

Last reported at 2017-Oct-05 04:35 UTC. Time now 2017-Oct-18 18:37 UTC.
Position N 25°37' W 017°19'.
Warning: this ship's position is 13 days out of date.

Length 121 m; draft 5.9 m.

Type: Other ship. MMSI: 356547000.

Date/timePositionNaut miles runAvg speedWind from/ knotsBaromVisibWave heightAir tempDewpointWater temp
2017-Oct-05 04:35N 25°37' W 017°19'  
2017-Oct-01 23:42N 27°29' W 014°38'2 8.1
2017-Oct-01 23:30N 27°30' W 014°37'57 7.9
2017-Oct-01 16:21N 28°03' W 013°45'3 8.8
2017-Oct-01 16:00N 28°06' W 013°43'14 9.0
2017-Oct-01 14:23N 28°19' W 013°36'11 8.4
2017-Oct-01 13:01N 28°29' W 013°30'0 8.2
2017-Oct-01 12:59N 28°29' W 013°30'6 8.1
2017-Oct-01 12:17N 28°35' W 013°27'2 8.0
2017-Oct-01 11:58N 28°37' W 013°26'4 8.0
2017-Oct-01 11:30N 28°40' W 013°24'4 8.1
2017-Oct-01 11:00N 28°44' W 013°22'4 8.0
2017-Oct-01 10:30N 28°48' W 013°20'4 7.9
2017-Oct-01 10:00N 28°51' W 013°18'4 7.7
2017-Oct-01 09:30N 28°55' W 013°16'4 7.6
2017-Oct-01 09:00N 28°58' W 013°15'4 7.7
2017-Oct-01 08:29N 29°02' W 013°13'4 7.6
2017-Oct-01 08:00N 29°05' W 013°12'4 7.5
2017-Oct-01 07:29N 29°09' W 013°10'  
2017-Sep-28 07:27N 35°59' W 005°30'510.8
2017-Sep-28 07:01N 36°00' W 005°25'510.4
2017-Sep-28 06:30N 36°02' W 005°18'3 6.9
2017-Sep-28 06:01N 35°59' W 005°16'4 8.2
2017-Sep-28 05:30N 35°55' W 005°19'0 0.6
2017-Sep-28 04:59N 35°55' W 005°20'0 0.0
2017-Sep-28 04:29N 35°55' W 005°20'0 0.0
2017-Sep-28 03:58N 35°55' W 005°20'0 0.0
2017-Sep-28 03:28N 35°55' W 005°20'0 0.0
2017-Sep-28 02:59N 35°55' W 005°20'0 0.0
2017-Sep-28 02:29N 35°55' W 005°20'0 0.0
2017-Sep-28 01:59N 35°55' W 005°20'0 0.0
2017-Sep-28 01:29N 35°55' W 005°20'0 0.1
2017-Sep-28 00:59N 35°55' W 005°20'0 0.0
2017-Sep-28 00:29N 35°55' W 005°20'0 0.0
2017-Sep-27 23:59N 35°55' W 005°20'0 0.0
2017-Sep-27 23:29N 35°55' W 005°20'0 0.0
2017-Sep-27 22:59N 35°55' W 005°20'0 0.0
2017-Sep-27 22:29N 35°55' W 005°20'0 0.0
2017-Sep-27 21:59N 35°55' W 005°20'0 0.0
2017-Sep-27 21:29N 35°55' W 005°20'0 0.0
2017-Sep-27 20:56N 35°55' W 005°20'0 0.0
2017-Sep-27 20:29N 35°55' W 005°20'0 0.0
2017-Sep-27 19:58N 35°55' W 005°20'0 0.0
2017-Sep-27 19:29N 35°55' W 005°20'0 0.0
2017-Sep-27 18:59N 35°55' W 005°20'0 0.0
2017-Sep-27 18:29N 35°55' W 005°20'0 0.0
2017-Sep-27 17:59N 35°55' W 005°20'0 0.4
2017-Sep-27 17:31N 35°55' W 005°20'1 1.3
2017-Sep-27 17:01N 35°55' W 005°21'3 5.5
2017-Sep-27 16:31N 35°55' W 005°17'4 8.8
2017-Sep-27 16:01N 35°56' W 005°12'  

Dump ship's entire track history